sensor_id;sensor_type;location;lat;lon;timestamp;pressure;altitude;pressure_sealevel;temperature;humidity
50854;BME280;44154;45.506;-122.806;2022-07-10T00:00:43;101303.97;;;27.61;44.02
50854;BME280;44154;45.506;-122.806;2022-07-10T00:03:09;101312.00;;;27.68;44.35
50854;BME280;44154;45.506;-122.806;2022-07-10T00:05:35;101306.78;;;27.66;44.58
50854;BME280;44154;45.506;-122.806;2022-07-10T00:08:02;101307.34;;;27.68;44.64
50854;BME280;44154;45.506;-122.806;2022-07-10T00:10:29;101302.63;;;27.64;44.81
50854;BME280;44154;45.506;-122.806;2022-07-10T00:12:55;101304.59;;;27.68;44.91
50854;BME280;44154;45.506;-122.806;2022-07-10T00:15:22;101304.91;;;27.72;44.95
50854;BME280;44154;45.506;-122.806;2022-07-10T00:17:48;101307.06;;;27.70;44.84
50854;BME280;44154;45.506;-122.806;2022-07-10T00:20:15;101307.06;;;27.65;45.21
50854;BME280;44154;45.506;-122.806;2022-07-10T00:22:42;101313.94;;;27.67;45.01
50854;BME280;44154;45.506;-122.806;2022-07-10T00:25:11;101324.25;;;27.50;45.88
50854;BME280;44154;45.506;-122.806;2022-07-10T00:27:38;101315.78;;;27.29;46.28
50854;BME280;44154;45.506;-122.806;2022-07-10T00:30:04;101318.16;;;27.15;47.05
50854;BME280;44154;45.506;-122.806;2022-07-10T00:32:31;101270.34;;;26.84;46.78
50854;BME280;44154;45.506;-122.806;2022-07-10T00:34:57;101313.69;;;27.37;45.88
50854;BME280;44154;45.506;-122.806;2022-07-10T00:37:23;101308.78;;;27.39;46.57
50854;BME280;44154;45.506;-122.806;2022-07-10T00:39:49;101308.69;;;27.33;46.59
50854;BME280;44154;45.506;-122.806;2022-07-10T00:42:16;101313.69;;;27.37;47.43
50854;BME280;44154;45.506;-122.806;2022-07-10T00:44:42;101307.09;;;27.38;47.16
50854;BME280;44154;45.506;-122.806;2022-07-10T00:47:10;101302.16;;;27.34;47.33
50854;BME280;44154;45.506;-122.806;2022-07-10T00:49:38;101294.13;;;27.33;47.64
50854;BME280;44154;45.506;-122.806;2022-07-10T00:52:13;101301.97;;;27.46;46.29
50854;BME280;44154;45.506;-122.806;2022-07-10T00:54:45;101306.19;;;27.59;46.14
50854;BME280;44154;45.506;-122.806;2022-07-10T00:57:13;101304.91;;;27.72;46.21
50854;BME280;44154;45.506;-122.806;2022-07-10T00:59:44;101302.75;;;27.79;46.25
50854;BME280;44154;45.506;-122.806;2022-07-10T01:02:11;101297.25;;;27.84;46.36
50854;BME280;44154;45.506;-122.806;2022-07-10T01:04:38;101307.22;;;27.96;46.44
50854;BME280;44154;45.506;-122.806;2022-07-10T01:07:04;101303.75;;;28.00;46.72
50854;BME280;44154;45.506;-122.806;2022-07-10T01:09:32;101287.69;;;27.92;46.35
50854;BME280;44154;45.506;-122.806;2022-07-10T01:12:02;101306.53;;;28.11;46.54
50854;BME280;44154;45.506;-122.806;2022-07-10T01:14:29;101299.66;;;28.13;46.05
50854;BME280;44154;45.506;-122.806;2022-07-10T01:16:59;101304.34;;;28.13;46.30
50854;BME280;44154;45.506;-122.806;2022-07-10T01:19:25;101318.41;;;28.16;46.06
50854;BME280;44154;45.506;-122.806;2022-07-10T01:21:52;101266.50;;;27.88;45.98
50854;BME280;44154;45.506;-122.806;2022-07-10T01:24:18;101306.56;;;28.16;46.18
50854;BME280;44154;45.506;-122.806;2022-07-10T01:26:44;101301.63;;;28.18;45.83
50854;BME280;44154;45.506;-122.806;2022-07-10T01:29:11;101306.06;;;28.24;46.20
50854;BME280;44154;45.506;-122.806;2022-07-10T01:31:37;101325.94;;;28.36;45.46
50854;BME280;44154;45.506;-122.806;2022-07-10T01:34:06;101327.88;;;28.41;45.19
50854;BME280;44154;45.506;-122.806;2022-07-10T01:36:34;101334.78;;;28.44;45.01
50854;BME280;44154;45.506;-122.806;2022-07-10T01:39:00;101327.88;;;28.41;44.85
50854;BME280;44154;45.506;-122.806;2022-07-10T01:41:27;101337.81;;;28.47;44.81
50854;BME280;44154;45.506;-122.806;2022-07-10T01:43:53;101320.97;;;28.38;44.45
50854;BME280;44154;45.506;-122.806;2022-07-10T01:46:20;101332.59;;;28.51;44.48
50854;BME280;44154;45.506;-122.806;2022-07-10T01:48:47;101341.41;;;28.53;44.16
50854;BME280;44154;45.506;-122.806;2022-07-10T01:51:13;101334.78;;;28.49;44.04
50854;BME280;44154;45.506;-122.806;2022-07-10T01:53:40;101346.66;;;28.54;44.07
50854;BME280;44154;45.506;-122.806;2022-07-10T01:56:08;101345.81;;;28.54;44.33
50854;BME280;44154;45.506;-122.806;2022-07-10T01:58:35;101327.59;;;28.48;44.61
50854;BME280;44154;45.506;-122.806;2022-07-10T02:01:02;101342.53;;;28.57;44.74
50854;BME280;44154;45.506;-122.806;2022-07-10T02:03:29;101315.44;;;28.33;44.54
50854;BME280;44154;45.506;-122.806;2022-07-10T02:06:13;101344.72;;;28.55;44.41
50854;BME280;44154;45.506;-122.806;2022-07-10T02:08:39;101347.72;;;28.53;44.53
50854;BME280;44154;45.506;-122.806;2022-07-10T02:11:05;101345.28;;;28.57;44.38
50854;BME280;44154;45.506;-122.806;2022-07-10T02:13:32;101344.19;;;28.58;44.01
50854;BME280;44154;45.506;-122.806;2022-07-10T02:15:58;101354.69;;;28.66;44.34
50854;BME280;44154;45.506;-122.806;2022-07-10T02:18:24;101352.47;;;28.58;43.01
50854;BME280;44154;45.506;-122.806;2022-07-10T02:20:52;101345.78;;;28.44;42.25
50854;BME280;44154;45.506;-122.806;2022-07-10T02:23:19;101353.50;;;28.52;42.40
50854;BME280;44154;45.506;-122.806;2022-07-10T02:25:45;101351.03;;;28.45;42.01
50854;BME280;44154;45.506;-122.806;2022-07-10T02:28:11;101361.19;;;28.45;42.65
50854;BME280;44154;45.506;-122.806;2022-07-10T02:30:37;101355.09;;;28.37;43.13
50854;BME280;44154;45.506;-122.806;2022-07-10T02:33:03;101369.97;;;28.36;42.83
50854;BME280;44154;45.506;-122.806;2022-07-10T02:35:30;101374.63;;;28.36;42.32
50854;BME280;44154;45.506;-122.806;2022-07-10T02:37:56;101364.44;;;28.31;42.35
50854;BME280;44154;45.506;-122.806;2022-07-10T02:40:22;101377.16;;;28.43;42.84
50854;BME280;44154;45.506;-122.806;2022-07-10T02:42:48;101359.75;;;28.32;42.45
50854;BME280;44154;45.506;-122.806;2022-07-10T02:45:14;101371.66;;;28.43;42.61
50854;BME280;44154;45.506;-122.806;2022-07-10T02:47:40;101376.59;;;28.41;42.64
50854;BME280;44154;45.506;-122.806;2022-07-10T02:50:07;101351.75;;;28.25;42.21
50854;BME280;44154;45.506;-122.806;2022-07-10T02:52:33;101388.75;;;28.50;42.38
50854;BME280;44154;45.506;-122.806;2022-07-10T02:54:59;101395.34;;;28.49;42.82
50854;BME280;44154;45.506;-122.806;2022-07-10T02:57:26;101399.78;;;28.50;42.04
50854;BME280;44154;45.506;-122.806;2022-07-10T02:59:53;101395.63;;;28.47;41.89
50854;BME280;44154;45.506;-122.806;2022-07-10T03:02:19;101398.59;;;28.41;41.37
50854;BME280;44154;45.506;-122.806;2022-07-10T03:04:45;101428.72;;;28.52;41.20
50854;BME280;44154;45.506;-122.806;2022-07-10T03:07:11;101428.72;;;28.52;40.75
50854;BME280;44154;45.506;-122.806;2022-07-10T03:09:38;101418.75;;;28.46;39.74
50854;BME280;44154;45.506;-122.806;2022-07-10T03:12:04;101425.63;;;28.44;40.78
50854;BME280;44154;45.506;-122.806;2022-07-10T03:14:31;101374.22;;;28.12;40.50
50854;BME280;44154;45.506;-122.806;2022-07-10T03:16:57;101414.53;;;28.33;40.14
50854;BME280;44154;45.506;-122.806;2022-07-10T03:19:23;101389.91;;;28.11;40.14
50854;BME280;44154;45.506;-122.806;2022-07-10T03:21:49;101383.00;;;28.03;39.47
50854;BME280;44154;45.506;-122.806;2022-07-10T03:24:15;101405.63;;;28.16;39.39
50854;BME280;44154;45.506;-122.806;2022-07-10T03:26:41;101402.06;;;28.15;39.19
50854;BME280;44154;45.506;-122.806;2022-07-10T03:29:08;101392.94;;;28.10;39.51
50854;BME280;44154;45.506;-122.806;2022-07-10T03:31:34;101391.25;;;28.03;39.64
50854;BME280;44154;45.506;-122.806;2022-07-10T03:36:29;101410.53;;;28.09;39.01
50854;BME280;44154;45.506;-122.806;2022-07-10T03:38:55;101389.75;;;27.91;39.48
50854;BME280;44154;45.506;-122.806;2022-07-10T03:41:21;101414.91;;;28.04;39.36
50854;BME280;44154;45.506;-122.806;2022-07-10T03:43:47;101418.19;;;28.01;39.59
50854;BME280;44154;45.506;-122.806;2022-07-10T03:46:14;101429.19;;;28.01;39.24
50854;BME280;44154;45.506;-122.806;2022-07-10T03:48:40;101432.19;;;28.00;39.12
50854;BME280;44154;45.506;-122.806;2022-07-10T03:51:06;101442.38;;;27.99;39.56
50854;BME280;44154;45.506;-122.806;2022-07-10T03:53:32;101437.16;;;27.98;39.55
50854;BME280;44154;45.506;-122.806;2022-07-10T03:55:58;101343.13;;;27.41;39.12
50854;BME280;44154;45.506;-122.806;2022-07-10T03:58:26;101451.97;;;27.97;38.85
50854;BME280;44154;45.506;-122.806;2022-07-10T04:00:52;101435.13;;;27.88;38.95
50854;BME280;44154;45.506;-122.806;2022-07-10T04:03:18;101448.38;;;27.96;39.48
50854;BME280;44154;45.506;-122.806;2022-07-10T04:05:44;101448.91;;;27.93;39.15
50854;BME280;44154;45.506;-122.806;2022-07-10T04:08:10;101458.78;;;27.89;38.91
50854;BME280;44154;45.506;-122.806;2022-07-10T04:10:37;101450.44;;;27.79;38.98
50854;BME280;44154;45.506;-122.806;2022-07-10T04:13:04;101468.94;;;27.89;38.83
50854;BME280;44154;45.506;-122.806;2022-07-10T04:15:30;101470.88;;;27.88;38.90
50854;BME280;44154;45.506;-122.806;2022-07-10T04:17:56;101439.56;;;27.62;38.33
50854;BME280;44154;45.506;-122.806;2022-07-10T04:20:23;101477.94;;;27.79;38.30
50854;BME280;44154;45.506;-122.806;2022-07-10T04:22:50;101472.69;;;27.77;38.59
50854;BME280;44154;45.506;-122.806;2022-07-10T04:25:16;101487.81;;;27.75;38.62
50854;BME280;44154;45.506;-122.806;2022-07-10T04:27:43;101488.56;;;27.70;38.46
50854;BME280;44154;45.506;-122.806;2022-07-10T04:30:09;101495.13;;;27.64;38.42
50854;BME280;44154;45.506;-122.806;2022-07-10T04:32:36;101473.09;;;27.37;38.24
50854;BME280;44154;45.506;-122.806;2022-07-10T04:35:03;101475.59;;;27.38;38.59
50854;BME280;44154;45.506;-122.806;2022-07-10T04:37:29;101511.78;;;27.52;38.06
50854;BME280;44154;45.506;-122.806;2022-07-10T04:39:55;101516.94;;;27.48;38.20
50854;BME280;44154;45.506;-122.806;2022-07-10T04:42:21;101442.13;;;26.97;37.87
50854;BME280;44154;45.506;-122.806;2022-07-10T04:44:47;101484.75;;;27.22;37.96
50854;BME280;44154;45.506;-122.806;2022-07-10T04:47:14;101530.91;;;27.42;37.81
50854;BME280;44154;45.506;-122.806;2022-07-10T04:49:40;101528.69;;;27.39;38.12
50854;BME280;44154;45.506;-122.806;2022-07-10T04:52:06;101520.84;;;27.30;37.72
50854;BME280;44154;45.506;-122.806;2022-07-10T04:54:32;101545.06;;;27.33;37.49
50854;BME280;44154;45.506;-122.806;2022-07-10T04:56:59;101548.59;;;27.29;37.69
50854;BME280;44154;45.506;-122.806;2022-07-10T04:59:26;101539.88;;;27.15;38.04
50854;BME280;44154;45.506;-122.806;2022-07-10T05:01:52;101540.94;;;27.14;37.79
50854;BME280;44154;45.506;-122.806;2022-07-10T05:04:18;101566.31;;;27.21;37.96
50854;BME280;44154;45.506;-122.806;2022-07-10T05:06:44;101572.03;;;27.14;37.19
50854;BME280;44154;45.506;-122.806;2022-07-10T05:09:10;101558.59;;;26.96;37.57
50854;BME280;44154;45.506;-122.806;2022-07-10T05:11:37;101585.94;;;27.08;37.34
50854;BME280;44154;45.506;-122.806;2022-07-10T05:14:03;101592.75;;;27.05;37.14
50854;BME280;44154;45.506;-122.806;2022-07-10T05:16:29;101595.78;;;27.04;37.22
50854;BME280;44154;45.506;-122.806;2022-07-10T05:18:55;101571.00;;;26.81;37.56
50854;BME280;44154;45.506;-122.806;2022-07-10T05:21:21;101602.03;;;26.99;37.35
50854;BME280;44154;45.506;-122.806;2022-07-10T05:23:48;101594.88;;;26.98;37.58
50854;BME280;44154;45.506;-122.806;2022-07-10T05:26:14;101603.63;;;26.95;37.69
50854;BME280;44154;45.506;-122.806;2022-07-10T05:28:40;101583.31;;;26.79;37.39
50854;BME280;44154;45.506;-122.806;2022-07-10T05:31:06;101602.69;;;26.89;37.23
50854;BME280;44154;45.506;-122.806;2022-07-10T05:33:32;101603.22;;;26.86;36.91
50854;BME280;44154;45.506;-122.806;2022-07-10T05:35:59;101594.00;;;26.75;36.97
50854;BME280;44154;45.506;-122.806;2022-07-10T05:38:25;101612.47;;;26.80;37.11
50854;BME280;44154;45.506;-122.806;2022-07-10T05:40:51;101615.47;;;26.78;37.23
50854;BME280;44154;45.506;-122.806;2022-07-10T05:43:19;101624.47;;;26.74;37.00
50854;BME280;44154;45.506;-122.806;2022-07-10T05:45:45;101626.59;;;26.72;36.98
50854;BME280;44154;45.506;-122.806;2022-07-10T05:48:12;101625.78;;;26.71;37.43
50854;BME280;44154;45.506;-122.806;2022-07-10T05:50:38;101627.09;;;26.69;36.98
50854;BME280;44154;45.506;-122.806;2022-07-10T05:53:05;101624.16;;;26.58;37.03
50854;BME280;44154;45.506;-122.806;2022-07-10T05:55:31;101607.59;;;26.53;37.02
50854;BME280;44154;45.506;-122.806;2022-07-10T05:57:57;101633.56;;;26.62;37.25
50854;BME280;44154;45.506;-122.806;2022-07-10T06:00:25;101607.78;;;26.46;37.29
50854;BME280;44154;45.506;-122.806;2022-07-10T06:02:51;101618.25;;;26.49;36.77
50854;BME280;44154;45.506;-122.806;2022-07-10T06:05:17;101627.91;;;26.52;36.73
50854;BME280;44154;45.506;-122.806;2022-07-10T06:07:43;101626.25;;;26.51;37.15
50854;BME280;44154;45.506;-122.806;2022-07-10T06:10:10;101621.81;;;26.50;37.01
50854;BME280;44154;45.506;-122.806;2022-07-10T06:12:36;101619.59;;;26.47;37.26
50854;BME280;44154;45.506;-122.806;2022-07-10T06:15:03;101622.06;;;26.48;36.88
50854;BME280;44154;45.506;-122.806;2022-07-10T06:17:30;101625.66;;;26.49;36.89
50854;BME280;44154;45.506;-122.806;2022-07-10T06:19:56;101636.88;;;26.47;37.02
50854;BME280;44154;45.506;-122.806;2022-07-10T06:22:23;101636.06;;;26.47;37.19
50854;BME280;44154;45.506;-122.806;2022-07-10T06:25:05;101617.75;;;26.36;37.22
50854;BME280;44154;45.506;-122.806;2022-07-10T06:27:32;101601.09;;;26.25;37.20
50854;BME280;44154;45.506;-122.806;2022-07-10T06:29:58;101632.81;;;26.50;37.59
50854;BME280;44154;45.506;-122.806;2022-07-10T06:32:26;101647.13;;;26.52;38.35
50854;BME280;44154;45.506;-122.806;2022-07-10T06:34:53;101649.63;;;26.54;37.75
50854;BME280;44154;45.506;-122.806;2022-07-10T06:37:20;101645.22;;;26.53;38.14
50854;BME280;44154;45.506;-122.806;2022-07-10T06:39:47;101639.16;;;26.51;38.13
50854;BME280;44154;45.506;-122.806;2022-07-10T06:42:14;101638.03;;;26.52;38.04
50854;BME280;44154;45.506;-122.806;2022-07-10T06:44:43;101630.06;;;26.50;38.09
50854;BME280;44154;45.506;-122.806;2022-07-10T06:47:11;101641.91;;;26.51;37.62
50854;BME280;44154;45.506;-122.806;2022-07-10T06:49:56;101647.38;;;26.51;37.84
50854;BME280;44154;45.506;-122.806;2022-07-10T06:52:23;101641.53;;;26.47;38.04
50854;BME280;44154;45.506;-122.806;2022-07-10T06:54:50;101644.84;;;26.49;37.96
50854;BME280;44154;45.506;-122.806;2022-07-10T06:57:16;101620.72;;;26.34;37.95
50854;BME280;44154;45.506;-122.806;2022-07-10T06:59:45;101652.28;;;26.48;37.82
50854;BME280;44154;45.506;-122.806;2022-07-10T07:02:12;101665.75;;;26.50;38.02
50854;BME280;44154;45.506;-122.806;2022-07-10T07:04:38;101666.81;;;26.49;37.94
50854;BME280;44154;45.506;-122.806;2022-07-10T07:07:04;101664.81;;;26.44;38.03
50854;BME280;44154;45.506;-122.806;2022-07-10T07:09:30;101667.00;;;26.42;37.68
50854;BME280;44154;45.506;-122.806;2022-07-10T07:11:56;101640.00;;;26.22;38.11
50854;BME280;44154;45.506;-122.806;2022-07-10T07:14:23;101666.06;;;26.37;37.97
50854;BME280;44154;45.506;-122.806;2022-07-10T07:16:49;101677.53;;;26.34;38.41
50854;BME280;44154;45.506;-122.806;2022-07-10T07:19:27;101685.41;;;26.30;38.39
50854;BME280;44154;45.506;-122.806;2022-07-10T07:22:15;101692.22;;;26.27;38.15
50854;BME280;44154;45.506;-122.806;2022-07-10T07:25:00;101670.97;;;26.06;38.16
50854;BME280;44154;45.506;-122.806;2022-07-10T07:27:26;101693.81;;;26.23;38.06
50854;BME280;44154;45.506;-122.806;2022-07-10T07:29:52;101693.56;;;26.25;38.25
50854;BME280;44154;45.506;-122.806;2022-07-10T07:32:18;101696.56;;;26.23;38.38
50854;BME280;44154;45.506;-122.806;2022-07-10T07:34:44;101687.72;;;26.21;38.16
50854;BME280;44154;45.506;-122.806;2022-07-10T07:37:10;101678.91;;;26.19;38.19
50854;BME280;44154;45.506;-122.806;2022-07-10T07:39:37;101689.91;;;26.19;38.62
50854;BME280;44154;45.506;-122.806;2022-07-10T07:42:03;101679.88;;;26.13;38.18
50854;BME280;44154;45.506;-122.806;2022-07-10T07:44:30;101679.41;;;26.16;38.65
50854;BME280;44154;45.506;-122.806;2022-07-10T07:46:56;101672.75;;;26.12;38.31
50854;BME280;44154;45.506;-122.806;2022-07-10T07:49:22;101660.72;;;26.01;38.47
50854;BME280;44154;45.506;-122.806;2022-07-10T07:51:48;101679.19;;;26.06;38.58
50854;BME280;44154;45.506;-122.806;2022-07-10T07:54:14;101661.66;;;26.07;38.58
50854;BME280;44154;45.506;-122.806;2022-07-10T07:56:41;101664.41;;;26.07;38.70
50854;BME280;44154;45.506;-122.806;2022-07-10T07:59:07;101667.41;;;26.05;38.71
50854;BME280;44154;45.506;-122.806;2022-07-10T08:01:33;101672.31;;;26.03;38.98
50854;BME280;44154;45.506;-122.806;2022-07-10T08:03:59;101667.88;;;26.02;38.64
50854;BME280;44154;45.506;-122.806;2022-07-10T08:06:25;101652.28;;;25.91;38.81
50854;BME280;44154;45.506;-122.806;2022-07-10T08:08:51;101679.09;;;26.01;39.00
50854;BME280;44154;45.506;-122.806;2022-07-10T08:11:17;101671.09;;;25.99;38.86
50854;BME280;44154;45.506;-122.806;2022-07-10T08:13:43;101666.09;;;25.96;38.81
50854;BME280;44154;45.506;-122.806;2022-07-10T08:16:10;101672.97;;;25.98;38.86
50854;BME280;44154;45.506;-122.806;2022-07-10T08:18:36;101655.50;;;25.88;38.86
50854;BME280;44154;45.506;-122.806;2022-07-10T08:21:02;101653.63;;;25.76;38.84
50854;BME280;44154;45.506;-122.806;2022-07-10T08:23:28;101672.28;;;25.91;39.01
50854;BME280;44154;45.506;-122.806;2022-07-10T08:25:54;101675.28;;;25.90;38.89
50854;BME280;44154;45.506;-122.806;2022-07-10T08:28:20;101677.44;;;25.88;38.82
50854;BME280;44154;45.506;-122.806;2022-07-10T08:30:47;101670.19;;;25.82;38.95
50854;BME280;44154;45.506;-122.806;2022-07-10T08:33:13;101683.06;;;25.81;38.97
50854;BME280;44154;45.506;-122.806;2022-07-10T08:35:39;101651.28;;;25.56;39.30
50854;BME280;44154;45.506;-122.806;2022-07-10T08:38:08;101685.72;;;25.76;39.21
50854;BME280;44154;45.506;-122.806;2022-07-10T08:40:35;101693.31;;;25.74;39.46
50854;BME280;44154;45.506;-122.806;2022-07-10T08:43:05;101698.81;;;25.74;39.17
50854;BME280;44154;45.506;-122.806;2022-07-10T08:45:32;101656.56;;;25.46;39.54
50854;BME280;44154;45.506;-122.806;2022-07-10T08:48:03;101705.59;;;25.71;39.32
50854;BME280;44154;45.506;-122.806;2022-07-10T08:50:33;101701.44;;;25.69;39.59
50854;BME280;44154;45.506;-122.806;2022-07-10T08:53:09;101697.28;;;25.66;39.50
50854;BME280;44154;45.506;-122.806;2022-07-10T08:55:38;101699.66;;;25.62;39.67
50854;BME280;44154;45.506;-122.806;2022-07-10T08:58:05;101701.56;;;25.62;39.76
50854;BME280;44154;45.506;-122.806;2022-07-10T09:00:33;101702.88;;;25.59;39.64
50854;BME280;44154;45.506;-122.806;2022-07-10T09:03:00;101705.03;;;25.57;39.81
50854;BME280;44154;45.506;-122.806;2022-07-10T09:05:26;101700.03;;;25.54;39.71
50854;BME280;44154;45.506;-122.806;2022-07-10T09:07:53;101676.22;;;25.31;39.66
50854;BME280;44154;45.506;-122.806;2022-07-10T09:10:25;101709.81;;;25.50;39.78
50854;BME280;44154;45.506;-122.806;2022-07-10T09:12:52;101689.44;;;25.34;40.03
50854;BME280;44154;45.506;-122.806;2022-07-10T09:15:20;101721.84;;;25.49;40.07
50854;BME280;44154;45.506;-122.806;2022-07-10T09:17:55;101728.38;;;25.48;40.00
50854;BME280;44154;45.506;-122.806;2022-07-10T09:20:48;101727.22;;;25.44;40.12
50854;BME280;44154;45.506;-122.806;2022-07-10T09:23:19;101700.50;;;25.27;39.94
50854;BME280;44154;45.506;-122.806;2022-07-10T09:25:47;101729.59;;;25.40;39.92
50854;BME280;44154;45.506;-122.806;2022-07-10T09:28:16;101734.50;;;25.38;40.20
50854;BME280;44154;45.506;-122.806;2022-07-10T09:30:43;101715.25;;;25.26;40.12
50854;BME280;44154;45.506;-122.806;2022-07-10T09:36:04;101732.06;;;25.30;40.04
50854;BME280;44154;45.506;-122.806;2022-07-10T09:38:50;101733.13;;;25.29;40.20
50854;BME280;44154;45.506;-122.806;2022-07-10T09:41:24;101733.38;;;25.27;40.39
50854;BME280;44154;45.506;-122.806;2022-07-10T09:46:25;101728.38;;;25.24;40.58
50854;BME280;44154;45.506;-122.806;2022-07-10T09:51:36;101750.75;;;25.21;40.34
50854;BME280;44154;45.506;-122.806;2022-07-10T09:54:05;101740.28;;;25.18;40.56
50854;BME280;44154;45.506;-122.806;2022-07-10T10:01:47;101735.47;;;25.02;40.75
50854;BME280;44154;45.506;-122.806;2022-07-10T10:04:15;101749.31;;;25.07;40.79
50854;BME280;44154;45.506;-122.806;2022-07-10T10:06:42;101749.16;;;25.02;40.79
50854;BME280;44154;45.506;-122.806;2022-07-10T10:09:38;101748.94;;;25.03;40.98
50854;BME280;44154;45.506;-122.806;2022-07-10T10:12:17;101732.72;;;24.90;41.09
50854;BME280;44154;45.506;-122.806;2022-07-10T10:14:48;101743.59;;;24.97;41.01
50854;BME280;44154;45.506;-122.806;2022-07-10T10:17:16;101640.22;;;24.38;40.95
50854;BME280;44154;45.506;-122.806;2022-07-10T10:19:44;101747.97;;;24.98;40.80
50854;BME280;44154;45.506;-122.806;2022-07-10T10:22:29;101749.06;;;24.97;40.94
50854;BME280;44154;45.506;-122.806;2022-07-10T10:24:57;101726.84;;;24.74;40.93
50854;BME280;44154;45.506;-122.806;2022-07-10T10:27:24;101753.81;;;24.89;40.95
50854;BME280;44154;45.506;-122.806;2022-07-10T10:29:51;101746.97;;;24.80;41.03
50854;BME280;44154;45.506;-122.806;2022-07-10T10:32:18;101764.75;;;24.89;40.82
50854;BME280;44154;45.506;-122.806;2022-07-10T10:34:48;101761.41;;;24.87;41.24
50854;BME280;44154;45.506;-122.806;2022-07-10T10:39:54;101753.06;;;24.82;41.20
50854;BME280;44154;45.506;-122.806;2022-07-10T10:45:22;101759.47;;;24.76;41.16
50854;BME280;44154;45.506;-122.806;2022-07-10T10:48:08;101775.06;;;24.75;41.13
50854;BME280;44154;45.506;-122.806;2022-07-10T10:50:42;101769.00;;;24.73;41.08
50854;BME280;44154;45.506;-122.806;2022-07-10T10:58:43;101760.25;;;24.65;41.45
50854;BME280;44154;45.506;-122.806;2022-07-10T11:09:27;101754.25;;;24.56;41.39
50854;BME280;44154;45.506;-122.806;2022-07-10T11:12:07;101759.13;;;24.54;41.45
50854;BME280;44154;45.506;-122.806;2022-07-10T11:14:39;101756.00;;;24.50;41.21
50854;BME280;44154;45.506;-122.806;2022-07-10T11:17:07;101735.00;;;24.32;41.56
50854;BME280;44154;45.506;-122.806;2022-07-10T11:19:34;101762.09;;;24.52;41.52
50854;BME280;44154;45.506;-122.806;2022-07-10T11:29:46;101760.53;;;24.45;41.31
50854;BME280;44154;45.506;-122.806;2022-07-10T11:32:17;101735.69;;;24.28;41.33
50854;BME280;44154;45.506;-122.806;2022-07-10T11:34:43;101760.38;;;24.39;41.40
50854;BME280;44154;45.506;-122.806;2022-07-10T11:37:16;101768.19;;;24.36;41.49
50854;BME280;44154;45.506;-122.806;2022-07-10T11:39:42;101719.59;;;24.01;41.46
50854;BME280;44154;45.506;-122.806;2022-07-10T11:42:09;101717.94;;;24.00;41.31
50854;BME280;44154;45.506;-122.806;2022-07-10T11:44:35;101774.59;;;24.30;41.47
50854;BME280;44154;45.506;-122.806;2022-07-10T11:47:01;101767.78;;;24.20;41.41
50854;BME280;44154;45.506;-122.806;2022-07-10T11:49:29;101761.56;;;24.13;41.33
50854;BME280;44154;45.506;-122.806;2022-07-10T11:52:01;101777.50;;;24.16;41.66
50854;BME280;44154;45.506;-122.806;2022-07-10T11:54:27;101771.63;;;24.13;41.52
50854;BME280;44154;45.506;-122.806;2022-07-10T11:56:53;101766.84;;;24.08;41.62
50854;BME280;44154;45.506;-122.806;2022-07-10T11:59:27;101787.81;;;24.14;41.63
50854;BME280;44154;45.506;-122.806;2022-07-10T12:01:55;101791.88;;;24.12;41.78
50854;BME280;44154;45.506;-122.806;2022-07-10T12:04:24;101755.09;;;23.89;41.53
50854;BME280;44154;45.506;-122.806;2022-07-10T12:06:52;101780.22;;;23.98;41.47
50854;BME280;44154;45.506;-122.806;2022-07-10T12:09:21;101792.38;;;24.02;41.53
50854;BME280;44154;45.506;-122.806;2022-07-10T12:12:02;101798.31;;;23.99;41.61
50854;BME280;44154;45.506;-122.806;2022-07-10T12:14:28;101796.69;;;23.91;41.83
50854;BME280;44154;45.506;-122.806;2022-07-10T12:16:56;101798.78;;;23.96;41.67
50854;BME280;44154;45.506;-122.806;2022-07-10T12:19:30;101795.03;;;23.90;41.74
50854;BME280;44154;45.506;-122.806;2022-07-10T12:22:00;101804.31;;;23.89;41.98
50854;BME280;44154;45.506;-122.806;2022-07-10T12:24:27;101803.47;;;23.88;41.98
50854;BME280;44154;45.506;-122.806;2022-07-10T12:26:53;101799.06;;;23.87;41.91
50854;BME280;44154;45.506;-122.806;2022-07-10T12:31:53;101766.03;;;23.64;42.26
50854;BME280;44154;45.506;-122.806;2022-07-10T12:34:39;101799.09;;;23.81;42.20
50854;BME280;44154;45.506;-122.806;2022-07-10T12:37:12;101800.22;;;23.73;42.22
50854;BME280;44154;45.506;-122.806;2022-07-10T12:39:52;101808.38;;;23.80;42.23
50854;BME280;44154;45.506;-122.806;2022-07-10T12:42:25;101812.97;;;23.79;42.44
50854;BME280;44154;45.506;-122.806;2022-07-10T12:44:51;101807.28;;;23.81;42.40
50854;BME280;44154;45.506;-122.806;2022-07-10T12:47:19;101818.44;;;23.79;42.50
50854;BME280;44154;45.506;-122.806;2022-07-10T12:52:28;101808.97;;;23.82;42.20
50854;BME280;44154;45.506;-122.806;2022-07-10T12:55:19;101804.00;;;23.72;42.16
50854;BME280;44154;45.506;-122.806;2022-07-10T12:57:57;101812.97;;;23.79;42.04
50854;BME280;44154;45.506;-122.806;2022-07-10T13:02:56;101826.88;;;23.78;42.11
50854;BME280;44154;45.506;-122.806;2022-07-10T13:05:33;101830.66;;;23.77;42.28
50854;BME280;44154;45.506;-122.806;2022-07-10T13:08:10;101819.97;;;23.75;42.26
50854;BME280;44154;45.506;-122.806;2022-07-10T13:10:54;101825.88;;;23.72;42.25
50854;BME280;44154;45.506;-122.806;2022-07-10T13:13:21;101829.66;;;23.71;42.28
50854;BME280;44154;45.506;-122.806;2022-07-10T13:15:48;101835.13;;;23.71;42.27